Time;durP1;ratioP1;P1;durP2;ratioP2;P2;SDS_P1;SDS_P2;PMS_P1;PMS_P2;Temp;Humidity;BMP_temperature;BMP_pressure;BME280_temperature;BME280_humidity;BME280_pressure;Samples;Min_cycle;Max_cycle;Signal;HPM_P1;HPM_P2
2022/08/28 00:00:07;;;;;;;;;;;22.00;1.00;;;;;;5051348;28;19966;-86
2022/08/28 00:02:32;;;;;;;;;;;22.00;99.90;;;;;;5051350;28;19923;-87
2022/08/28 00:04:58;;;;;;;;;;;21.90;99.90;;;;;;5052653;28;19913;-87
2022/08/28 00:07:24;;;;;;;;;;;21.90;99.90;;;;;;5051116;28;20303;-87
2022/08/28 00:09:49;;;;;;;;;;;21.90;1.00;;;;;;5051416;28;19931;-87
2022/08/28 00:12:15;;;;;;;;;;;21.90;99.90;;;;;;5051369;28;19909;-86
2022/08/28 00:14:40;;;;;;;;;;;21.80;99.90;;;;;;5051258;28;20279;-87
2022/08/28 00:17:06;;;;;;;;;;;21.80;99.90;;;;;;5076178;28;19966;-86
2022/08/28 00:19:33;;;;;;;;;;;21.80;99.90;;;;;;5078067;28;19976;-86
2022/08/28 00:21:59;;;;;;;;;;;21.80;99.90;;;;;;5056966;28;19935;-86
2022/08/28 00:24:25;;;;;;;;;;;21.70;1.00;;;;;;5051149;28;19999;-87
2022/08/28 00:29:35;;;;;;;;;;;21.70;48.40;;;;;;5052734;28;19966;-87
2022/08/28 00:32:00;;;;;;;;;;;21.70;14.30;;;;;;5050934;28;19908;-86
2022/08/28 00:34:27;;;;;;;;;;;21.60;1.00;;;;;;5051069;28;19913;-87
2022/08/28 00:36:53;;;;;;;;;;;21.60;3.60;;;;;;5050765;28;20269;-87
2022/08/28 00:39:18;;;;;;;;;;;21.60;1.00;;;;;;5050912;28;20023;-87
2022/08/28 00:41:44;;;;;;;;;;;21.60;1.00;;;;;;5051277;28;20391;-86
2022/08/28 00:44:17;;;;;;;;;;;21.60;35.40;;;;;;5054551;28;19909;-86
2022/08/28 00:46:45;;;;;;;;;;;21.60;99.10;;;;;;5055668;28;19916;-87
2022/08/28 00:49:11;;;;;;;;;;;21.60;1.00;;;;;;5054636;28;20000;-87
2022/08/28 00:54:21;;;;;;;;;;;21.50;1.00;;;;;;5056152;28;19959;-87
2022/08/28 00:56:47;;;;;;;;;;;21.50;99.90;;;;;;5070934;28;19971;-87
2022/08/28 00:59:14;;;;;;;;;;;21.50;94.10;;;;;;5071094;28;19913;-87
2022/08/28 01:01:40;;;;;;;;;;;21.40;99.90;;;;;;5054529;28;20011;-87
2022/08/28 01:04:06;;;;;;;;;;;21.40;20.70;;;;;;5054363;28;19952;-86
2022/08/28 01:06:32;;;;;;;;;;;21.40;1.00;;;;;;5055468;28;20393;-87
2022/08/28 01:08:58;;;;;;;;;;;21.40;99.90;;;;;;5054320;28;19913;-86
2022/08/28 01:11:24;;;;;;;;;;;21.40;99.90;;;;;;5054251;28;19908;-86
2022/08/28 01:13:53;;;;;;;;;;;21.40;1.00;;;;;;5055347;28;19917;-87
2022/08/28 01:16:20;;;;;;;;;;;21.40;75.60;;;;;;5053801;28;19909;-86
2022/08/28 01:18:47;;;;;;;;;;;21.40;99.90;;;;;;5054115;28;19912;-87
2022/08/28 01:21:16;;;;;;;;;;;21.40;1.00;;;;;;5055315;28;19991;-87
2022/08/28 01:23:58;;;;;;;;;;;21.40;99.90;;;;;;5053921;28;19959;-86
2022/08/28 01:26:25;;;;;;;;;;;21.40;1.00;;;;;;5054930;28;19913;-86
2022/08/28 01:28:51;;;;;;;;;;;21.40;94.70;;;;;;5053974;28;19916;-87
2022/08/28 01:31:16;;;;;;;;;;;21.40;99.90;;;;;;5055207;28;20288;-87
2022/08/28 01:33:43;;;;;;;;;;;21.40;1.00;;;;;;5054976;28;19909;-86
2022/08/28 01:36:10;;;;;;;;;;;21.40;18.70;;;;;;5053483;28;19909;-86
2022/08/28 01:38:37;;;;;;;;;;;21.40;1.00;;;;;;5070388;28;19917;-86
2022/08/28 01:41:02;;;;;;;;;;;21.30;1.00;;;;;;5054991;28;19909;-87
2022/08/28 01:43:30;;;;;;;;;;;21.30;1.00;;;;;;5053505;28;20055;-86
2022/08/28 01:46:00;;;;;;;;;;;21.30;1.00;;;;;;5053314;28;19909;-87
2022/08/28 01:48:26;;;;;;;;;;;21.20;1.00;;;;;;5053410;28;20372;-87
2022/08/28 01:50:52;;;;;;;;;;;21.20;1.00;;;;;;5053557;28;20296;-86
2022/08/28 01:53:19;;;;;;;;;;;21.20;99.90;;;;;;5053144;28;19919;-86
2022/08/28 01:55:45;;;;;;;;;;;21.10;1.00;;;;;;5054000;28;19913;-87
2022/08/28 01:58:11;;;;;;;;;;;21.10;1.00;;;;;;5054526;28;19916;-86
2022/08/28 02:00:37;;;;;;;;;;;21.10;1.00;;;;;;5053364;28;19956;-86
2022/08/28 02:03:03;;;;;;;;;;;21.10;1.00;;;;;;5069797;28;20392;-87
2022/08/28 02:05:31;;;;;;;;;;;21.10;18.10;;;;;;5069912;28;19915;-87
2022/08/28 02:07:57;;;;;;;;;;;21.00;1.00;;;;;;5053423;28;20023;-87
2022/08/28 02:10:24;;;;;;;;;;;21.00;1.00;;;;;;5069717;28;19913;-87
2022/08/28 02:12:50;;;;;;;;;;;21.00;1.00;;;;;;5052887;28;20426;-86
2022/08/28 02:15:16;;;;;;;;;;;21.00;16.90;;;;;;5054136;28;20026;-86
2022/08/28 02:17:41;;;;;;;;;;;21.00;44.20;;;;;;5053031;28;19963;-87
2022/08/28 02:20:07;;;;;;;;;;;21.00;99.90;;;;;;5052729;28;19921;-86
2022/08/28 02:22:33;;;;;;;;;;;21.00;99.90;;;;;;5052730;28;19908;-85
2022/08/28 02:24:58;;;;;;;;;;;21.00;99.90;;;;;;5052908;28;20283;-86
2022/08/28 02:27:24;;;;;;;;;;;21.00;99.90;;;;;;5053635;28;19959;-86
2022/08/28 02:29:49;;;;;;;;;;;21.00;99.90;;;;;;5052753;28;19909;-87
2022/08/28 02:32:16;;;;;;;;;;;21.00;99.90;;;;;;5052506;28;20508;-85
2022/08/28 02:34:42;;;;;;;;;;;21.00;99.90;;;;;;5052574;28;20331;-86
2022/08/28 02:37:10;;;;;;;;;;;20.90;1.00;;;;;;5052285;28;20630;-86
2022/08/28 02:39:36;;;;;;;;;;;20.90;99.90;;;;;;5052583;28;19913;-87
2022/08/28 02:42:01;;;;;;;;;;;20.90;99.90;;;;;;5052687;28;19959;-86
2022/08/28 02:44:27;;;;;;;;;;;20.90;99.90;;;;;;5052376;28;20372;-86
2022/08/28 02:46:52;;;;;;;;;;;20.90;1.00;;;;;;5052028;28;19909;-87
2022/08/28 02:49:18;;;;;;;;;;;20.80;1.00;;;;;;5052180;28;19916;-87
2022/08/28 02:51:44;;;;;;;;;;;20.80;1.00;;;;;;5052349;28;19916;-86
2022/08/28 02:54:09;;;;;;;;;;;20.80;1.00;;;;;;5052168;28;19995;-86
2022/08/28 02:56:34;;;;;;;;;;;20.80;1.00;;;;;;5052167;28;19909;-87
2022/08/28 02:59:00;;;;;;;;;;;20.80;1.00;;;;;;5052000;28;19913;-86
2022/08/28 03:01:25;;;;;;;;;;;20.80;1.00;;;;;;5052039;28;19909;-86
2022/08/28 03:03:51;;;;;;;;;;;20.70;99.90;;;;;;5053262;28;20253;-87
2022/08/28 03:06:16;;;;;;;;;;;20.70;99.90;;;;;;5051055;28;19999;-84
2022/08/28 03:08:42;;;;;;;;;;;20.70;1.00;;;;;;5053245;28;19909;-86
2022/08/28 03:11:08;;;;;;;;;;;20.70;99.90;;;;;;5052016;28;19909;-86
2022/08/28 03:13:34;;;;;;;;;;;20.60;99.90;;;;;;5053551;28;19923;-87
2022/08/28 03:15:59;;;;;;;;;;;20.50;99.90;;;;;;5051651;28;19909;-86
2022/08/28 03:18:28;;;;;;;;;;;20.50;99.90;;;;;;5051718;28;19913;-85
2022/08/28 03:20:55;;;;;;;;;;;20.50;99.90;;;;;;5051764;28;19909;-87
2022/08/28 03:23:26;;;;;;;;;;;20.40;99.90;;;;;;5052058;28;19913;-86
2022/08/28 03:25:53;;;;;;;;;;;20.40;99.90;;;;;;5051652;28;19941;-86
2022/08/28 03:28:18;;;;;;;;;;;20.30;99.90;;;;;;5051757;28;19957;-87
2022/08/28 03:30:44;;;;;;;;;;;20.20;99.90;;;;;;5052017;28;19913;-87
2022/08/28 03:33:10;;;;;;;;;;;20.10;1.00;;;;;;5051586;28;20405;-85
2022/08/28 03:35:36;;;;;;;;;;;20.10;26.60;;;;;;5052619;28;20005;-86
2022/08/28 03:38:02;;;;;;;;;;;20.00;99.90;;;;;;5051547;28;19955;-87
2022/08/28 03:40:28;;;;;;;;;;;19.90;99.90;;;;;;5051586;28;19920;-85
2022/08/28 03:42:53;;;;;;;;;;;19.80;99.90;;;;;;5051291;28;19912;-86
2022/08/28 03:45:19;;;;;;;;;;;19.80;1.00;;;;;;5051334;28;20534;-85
2022/08/28 03:47:45;;;;;;;;;;;19.70;99.90;;;;;;5052433;28;19948;-85
2022/08/28 03:50:11;;;;;;;;;;;19.60;99.90;;;;;;5051365;28;19908;-85
2022/08/28 03:52:37;;;;;;;;;;;19.50;99.90;;;;;;5051190;28;20016;-86
2022/08/28 03:55:04;;;;;;;;;;;19.40;99.90;;;;;;5050879;28;19917;-86
2022/08/28 03:57:30;;;;;;;;;;;19.40;99.90;;;;;;5067873;28;20378;-87
2022/08/28 03:59:55;;;;;;;;;;;19.40;99.90;;;;;;5051589;28;19913;-87
2022/08/28 04:02:21;;;;;;;;;;;19.30;99.90;;;;;;5051175;28;19940;-86
2022/08/28 04:04:47;;;;;;;;;;;19.30;27.10;;;;;;5051418;28;19913;-86
2022/08/28 04:07:13;;;;;;;;;;;19.20;99.90;;;;;;5052162;28;19909;-87
2022/08/28 04:09:38;;;;;;;;;;;19.20;1.00;;;;;;5052632;28;19909;-86
2022/08/28 04:12:04;;;;;;;;;;;19.20;1.00;;;;;;5051287;28;19909;-87
2022/08/28 04:14:29;;;;;;;;;;;19.20;1.00;;;;;;5068254;28;20383;-85
2022/08/28 04:16:54;;;;;;;;;;;19.20;36.00;;;;;;5051678;28;19952;-86
2022/08/28 04:19:20;;;;;;;;;;;19.20;99.90;;;;;;5056255;28;19962;-85
2022/08/28 04:21:46;;;;;;;;;;;19.20;28.90;;;;;;5054916;28;19908;-86
2022/08/28 04:24:12;;;;;;;;;;;19.20;1.00;;;;;;5071602;28;19909;-86
2022/08/28 04:26:37;;;;;;;;;;;19.10;99.90;;;;;;5054768;28;20292;-87
2022/08/28 04:29:03;;;;;;;;;;;19.10;99.90;;;;;;5055020;28;19958;-87
2022/08/28 04:31:28;;;;;;;;;;;19.20;51.70;;;;;;5056275;28;19967;-86
2022/08/28 04:33:54;;;;;;;;;;;19.10;99.90;;;;;;5071637;28;20003;-86
2022/08/28 04:36:20;;;;;;;;;;;19.20;1.00;;;;;;5071462;28;19909;-86
2022/08/28 04:38:46;;;;;;;;;;;19.10;99.90;;;;;;5054699;28;19913;-85
2022/08/28 04:41:12;;;;;;;;;;;19.10;99.90;;;;;;5054844;28;19916;-87
2022/08/28 04:43:38;;;;;;;;;;;19.10;99.90;;;;;;5054720;28;19909;-88
2022/08/28 04:46:05;;;;;;;;;;;19.10;1.00;;;;;;5054734;28;19916;-85
2022/08/28 04:48:31;;;;;;;;;;;19.10;99.90;;;;;;5054527;28;19916;-85
2022/08/28 04:50:57;;;;;;;;;;;19.10;1.00;;;;;;5054499;28;19916;-85
2022/08/28 04:53:23;;;;;;;;;;;19.10;1.00;;;;;;5054451;28;19916;-87
2022/08/28 04:55:49;;;;;;;;;;;19.10;1.00;;;;;;5054304;28;19939;-86
2022/08/28 04:58:15;;;;;;;;;;;19.10;1.00;;;;;;5054342;28;20380;-85
2022/08/28 05:00:42;;;;;;;;;;;19.10;1.00;;;;;;5055400;28;20372;-85
2022/08/28 05:03:10;;;;;;;;;;;19.10;99.90;;;;;;5054310;28;19909;-86
2022/08/28 05:05:53;;;;;;;;;;;19.10;1.00;;;;;;5070868;28;19909;-87
2022/08/28 05:08:21;;;;;;;;;;;19.10;1.00;;;;;;5054269;28;19916;-85
2022/08/28 05:10:47;;;;;;;;;;;19.10;99.90;;;;;;5054318;28;19919;-87
2022/08/28 05:13:14;;;;;;;;;;;19.10;1.00;;;;;;5055210;28;19999;-87
2022/08/28 05:15:40;;;;;;;;;;;19.10;1.00;;;;;;5054194;28;19955;-87
2022/08/28 05:18:06;;;;;;;;;;;19.10;1.00;;;;;;5054079;28;19909;-86
2022/08/28 05:20:35;;;;;;;;;;;19.10;1.00;;;;;;5054002;28;20068;-87
2022/08/28 05:23:01;;;;;;;;;;;19.20;1.00;;;;;;5055496;28;20368;-87
2022/08/28 05:25:26;;;;;;;;;;;19.20;99.90;;;;;;5055098;28;19919;-86
2022/08/28 05:27:52;;;;;;;;;;;19.20;99.90;;;;;;5070400;28;19908;-87
2022/08/28 05:30:17;;;;;;;;;;;19.20;99.90;;;;;;5053198;28;20275;-88
2022/08/28 05:32:43;;;;;;;;;;;19.30;99.90;;;;;;5053536;28;20002;-85
2022/08/28 05:35:08;;;;;;;;;;;19.30;99.90;;;;;;5053594;28;19916;-85
2022/08/28 05:37:34;;;;;;;;;;;19.30;57.00;;;;;;5053474;28;20377;-87
2022/08/28 05:39:59;;;;;;;;;;;19.30;99.90;;;;;;5053715;28;19936;-86
2022/08/28 05:42:25;;;;;;;;;;;19.40;99.90;;;;;;5053369;28;19932;-86
2022/08/28 05:44:51;;;;;;;;;;;19.40;1.00;;;;;;5055006;28;19913;-85
2022/08/28 05:47:17;;;;;;;;;;;19.50;99.90;;;;;;5053458;28;19913;-87
2022/08/28 05:49:43;;;;;;;;;;;19.50;84.70;;;;;;5053546;28;19909;-86
2022/08/28 05:52:08;;;;;;;;;;;19.50;1.00;;;;;;5053373;28;20289;-86
2022/08/28 05:54:34;;;;;;;;;;;19.50;1.00;;;;;;5053209;28;19915;-86
2022/08/28 05:56:59;;;;;;;;;;;19.60;99.90;;;;;;5054636;28;19909;-86
2022/08/28 05:59:25;;;;;;;;;;;19.60;1.00;;;;;;5054793;28;19913;-88
2022/08/28 06:01:50;;;;;;;;;;;19.70;99.90;;;;;;5053213;28;20327;-87
2022/08/28 06:04:26;;;;;;;;;;;19.70;99.90;;;;;;5053149;28;20040;-86
2022/08/28 06:06:52;;;;;;;;;;;19.80;1.00;;;;;;5054383;28;19917;-87
2022/08/28 06:09:22;;;;;;;;;;;19.90;99.90;;;;;;5054041;28;19915;-87
2022/08/28 06:11:48;;;;;;;;;;;19.90;1.00;;;;;;5053248;28;19920;-86
2022/08/28 06:14:19;;;;;;;;;;;19.90;1.00;;;;;;5068637;28;19909;-85
2022/08/28 06:16:46;;;;;;;;;;;20.00;99.90;;;;;;5077292;28;19897;-86
2022/08/28 06:19:12;;;;;;;;;;;20.00;99.90;;;;;;5053030;28;19948;-84
2022/08/28 06:21:39;;;;;;;;;;;20.00;99.90;;;;;;5053400;28;20391;-86
2022/08/28 06:24:04;;;;;;;;;;;20.00;99.90;;;;;;5068840;28;20441;-86
2022/08/28 06:26:30;;;;;;;;;;;20.00;1.00;;;;;;5072859;28;20019;-87
2022/08/28 06:29:03;;;;;;;;;;;20.10;1.00;;;;;;5073175;28;19909;-87
2022/08/28 06:31:29;;;;;;;;;;;20.10;1.00;;;;;;5072685;28;19954;-87
2022/08/28 06:33:55;;;;;;;;;;;20.20;6.90;;;;;;5072712;28;19957;-87
2022/08/28 06:36:22;;;;;;;;;;;20.20;99.90;;;;;;5072516;28;20330;-87
2022/08/28 06:38:47;;;;;;;;;;;20.20;99.90;;;;;;5072899;28;20371;-86
2022/08/28 06:41:14;;;;;;;;;;;20.20;1.00;;;;;;5072334;28;19915;-87
2022/08/28 06:43:40;;;;;;;;;;;20.30;99.90;;;;;;5072668;28;19948;-86
2022/08/28 06:46:05;;;;;;;;;;;20.30;99.90;;;;;;5074394;28;19909;-86
2022/08/28 06:48:31;;;;;;;;;;;20.40;1.00;;;;;;5074637;28;20367;-86
2022/08/28 06:50:56;;;;;;;;;;;20.30;99.90;;;;;;5072428;28;19920;-87
2022/08/28 06:53:24;;;;;;;;;;;20.40;1.00;;;;;;5074176;28;19908;-87
2022/08/28 06:55:57;;;;;;;;;;;20.40;96.70;;;;;;5073645;28;19982;-87
2022/08/28 06:58:23;;;;;;;;;;;20.50;1.00;;;;;;5072616;28;19954;-89
2022/08/28 07:00:49;;;;;;;;;;;20.50;99.90;;;;;;5072315;28;19912;-87
2022/08/28 07:03:14;;;;;;;;;;;20.60;99.90;;;;;;5072263;28;20329;-87
2022/08/28 07:05:40;;;;;;;;;;;20.60;99.90;;;;;;5072172;28;19908;-87
2022/08/28 07:08:05;;;;;;;;;;;20.70;62.70;;;;;;5072432;28;19908;-87
2022/08/28 07:10:31;;;;;;;;;;;20.70;62.10;;;;;;5072352;28;20309;-89
2022/08/28 07:12:59;;;;;;;;;;;20.70;99.90;;;;;;5072224;28;20308;-87
2022/08/28 07:15:25;;;;;;;;;;;20.70;99.90;;;;;;5072168;28;19912;-87
2022/08/28 07:17:50;;;;;;;;;;;20.80;1.00;;;;;;5072420;28;20039;-87
2022/08/28 07:20:16;;;;;;;;;;;20.90;99.90;;;;;;5072146;28;20003;-87
2022/08/28 07:22:42;;;;;;;;;;;20.90;99.90;;;;;;5072065;28;19915;-87
2022/08/28 07:25:08;;;;;;;;;;;21.00;99.90;;;;;;5071991;28;19963;-88
2022/08/28 07:27:33;;;;;;;;;;;21.00;99.90;;;;;;5071830;28;19908;-87
2022/08/28 07:30:00;;;;;;;;;;;21.20;99.90;;;;;;5072401;28;20008;-87
2022/08/28 07:32:27;;;;;;;;;;;21.30;67.40;;;;;;5071966;28;19909;-89
2022/08/28 07:34:52;;;;;;;;;;;21.40;99.90;;;;;;5072395;28;19926;-87
2022/08/28 07:37:18;;;;;;;;;;;21.40;99.90;;;;;;5073316;28;19908;-88
2022/08/28 07:39:43;;;;;;;;;;;21.50;99.90;;;;;;5072266;28;19912;-87
2022/08/28 07:44:47;;;;;;;;;;;21.60;99.90;;;;;;5071900;28;19939;-87
2022/08/28 07:44:56;;;;;;;;;;;21.70;99.90;;;;;;5073593;28;19931;-86
2022/08/28 07:47:22;;;;;;;;;;;21.80;99.90;;;;;;5073508;28;19991;-88
2022/08/28 07:49:47;;;;;;;;;;;21.80;1.00;;;;;;5072081;28;20337;-87
2022/08/28 07:52:13;;;;;;;;;;;21.90;99.90;;;;;;5071436;28;19910;-87
2022/08/28 07:54:39;;;;;;;;;;;22.00;1.00;;;;;;5072283;28;19908;-88
2022/08/28 07:57:05;;;;;;;;;;;22.10;1.00;;;;;;5071874;28;19909;-88
2022/08/28 07:59:31;;;;;;;;;;;22.10;99.90;;;;;;5072036;28;20367;-88
2022/08/28 08:01:56;;;;;;;;;;;22.10;1.00;;;;;;5071941;28;19919;-90
2022/08/28 08:04:22;;;;;;;;;;;22.20;1.00;;;;;;5072012;28;19919;-87
2022/08/28 08:06:48;;;;;;;;;;;22.30;99.90;;;;;;5071299;28;19915;-87
2022/08/28 08:09:15;;;;;;;;;;;22.50;99.90;;;;;;5071834;28;19908;-87
2022/08/28 08:11:41;;;;;;;;;;;22.60;99.90;;;;;;5071536;28;19908;-88
2022/08/28 08:14:07;;;;;;;;;;;22.70;99.90;;;;;;5071661;28;19928;-87
2022/08/28 08:16:34;;;;;;;;;;;22.80;99.90;;;;;;5073253;28;19932;-88
2022/08/28 08:19:00;;;;;;;;;;;22.90;1.00;;;;;;5071990;28;19965;-90
2022/08/28 08:21:26;;;;;;;;;;;22.90;1.00;;;;;;5072274;28;19909;-88
2022/08/28 08:23:52;;;;;;;;;;;23.00;73.20;;;;;;5071075;28;19909;-89
2022/08/28 08:26:19;;;;;;;;;;;23.20;15.00;;;;;;5071130;28;19915;-87
2022/08/28 08:28:45;;;;;;;;;;;23.20;1.00;;;;;;5072575;28;19908;-87
2022/08/28 08:31:12;;;;;;;;;;;23.40;20.70;;;;;;5071872;28;19923;-89
2022/08/28 08:33:41;;;;;;;;;;;23.50;1.00;;;;;;5071407;28;19909;-88
2022/08/28 08:36:07;;;;;;;;;;;23.60;1.00;;;;;;5071038;28;19912;-88
2022/08/28 08:38:35;;;;;;;;;;;23.60;1.00;;;;;;5071396;28;19913;-88
2022/08/28 08:41:03;;;;;;;;;;;23.80;1.00;;;;;;5071116;28;20288;-87
2022/08/28 08:43:30;;;;;;;;;;;24.00;1.00;;;;;;5071967;28;19908;-86
2022/08/28 08:45:56;;;;;;;;;;;24.20;1.00;;;;;;5070535;28;19908;-87
2022/08/28 08:48:28;;;;;;;;;;;24.50;1.00;;;;;;5070920;28;20001;-88
2022/08/28 08:50:56;;;;;;;;;;;25.00;1.00;;;;;;5057143;28;20277;-87
2022/08/28 08:53:27;;;;;;;;;;;25.40;1.00;;;;;;5052005;28;19915;-86
2022/08/28 08:55:54;;;;;;;;;;;25.80;99.90;;;;;;5050006;28;19917;-86
2022/08/28 08:58:28;;;;;;;;;;;26.30;99.90;;;;;;5051774;28;19908;-86
2022/08/28 09:00:57;;;;;;;;;;;27.70;99.90;;;;;;5050530;28;19917;-85
2022/08/28 09:03:24;;;;;;;;;;;29.30;99.90;;;;;;5051363;28;19954;-87
2022/08/28 09:05:58;;;;;;;;;;;30.60;99.90;;;;;;5053776;28;20440;-89
2022/08/28 09:08:44;;;;;;;;;;;31.90;99.90;;;;;;5069736;28;19908;-84
2022/08/28 09:11:31;;;;;;;;;;;33.50;99.90;;;;;;5068747;28;20054;-84
2022/08/28 09:14:01;;;;;;;;;;;34.90;99.90;;;;;;5060126;28;20403;-85
2022/08/28 09:16:30;;;;;;;;;;;35.80;99.90;;;;;;5067653;28;19917;-86
2022/08/28 09:18:56;;;;;;;;;;;36.60;99.90;;;;;;5057562;28;19917;-85
2022/08/28 09:21:31;;;;;;;;;;;37.40;99.90;;;;;;5060098;28;19916;-86
2022/08/28 09:24:01;;;;;;;;;;;37.60;99.90;;;;;;5073629;28;19955;-86
2022/08/28 09:26:26;;;;;;;;;;;37.70;99.90;;;;;;5083734;28;20289;-87
2022/08/28 09:29:00;;;;;;;;;;;38.40;99.90;;;;;;5078258;28;19923;-85
2022/08/28 09:31:32;;;;;;;;;;;39.00;99.90;;;;;;5078954;28;19931;-85
2022/08/28 09:34:17;;;;;;;;;;;39.40;99.90;;;;;;5075339;28;20364;-87
2022/08/28 09:36:43;;;;;;;;;;;39.20;99.90;;;;;;5078589;28;19908;-86
2022/08/28 09:39:11;;;;;;;;;;;39.20;99.90;;;;;;5080374;28;19919;-85
2022/08/28 09:44:53;;;;;;;;;;;38.20;99.90;;;;;;5061109;28;19916;-86
2022/08/28 09:47:39;;;;;;;;;;;36.70;99.90;;;;;;5061760;28;19909;-85
2022/08/28 09:50:16;;;;;;;;;;;36.10;99.90;;;;;;5056064;28;20000;-87
2022/08/28 09:52:42;;;;;;;;;;;35.70;99.90;;;;;;5053513;28;20011;-90
2022/08/28 09:55:09;;;;;;;;;;;35.50;99.90;;;;;;5053152;28;19952;-87
2022/08/28 09:57:35;;;;;;;;;;;35.20;99.90;;;;;;5052652;28;20391;-87
2022/08/28 10:00:00;;;;;;;;;;;34.90;99.90;;;;;;5053083;28;20016;-88
2022/08/28 10:02:33;;;;;;;;;;;34.60;99.90;;;;;;5053149;28;20046;-89
2022/08/28 10:05:07;;;;;;;;;;;34.10;99.90;;;;;;5053030;28;20288;-86
2022/08/28 10:07:32;;;;;;;;;;;33.80;99.90;;;;;;5052987;28;19954;-86
2022/08/28 10:10:01;;;;;;;;;;;33.40;99.90;;;;;;5053928;28;19909;-86
2022/08/28 10:13:11;;;;;;;;;;;33.00;99.90;;;;;;5052815;28;19920;-86
2022/08/28 10:15:39;;;;;;;;;;;33.10;99.90;;;;;;5049084;28;19936;-88
2022/08/28 10:18:05;;;;;;;;;;;33.20;99.90;;;;;;5052875;28;19916;-87
2022/08/28 10:20:46;;;;;;;;;;;32.80;99.90;;;;;;5067136;28;19913;-86
2022/08/28 10:23:31;;;;;;;;;;;32.10;99.90;;;;;;5069122;28;19975;-80
2022/08/28 10:26:02;;;;;;;;;;;31.50;99.90;;;;;;5052843;28;19912;-84
2022/08/28 10:28:46;;;;;;;;;;;31.30;99.90;;;;;;5052508;28;19909;-85
2022/08/28 10:31:18;;;;;;;;;;;31.10;99.90;;;;;;5052343;28;19975;-82
2022/08/28 10:33:47;;;;;;;;;;;30.90;99.90;;;;;;5052500;28;19909;-84
2022/08/28 10:36:12;;;;;;;;;;;30.80;99.90;;;;;;5051238;28;19909;-84
2022/08/28 10:38:40;;;;;;;;;;;30.80;99.90;;;;;;5051867;28;20360;-83
2022/08/28 10:41:38;;;;;;;;;;;30.80;99.90;;;;;;5052155;28;19916;-88
2022/08/28 10:44:04;;;;;;;;;;;30.60;99.90;;;;;;5051833;28;20007;-86
2022/08/28 10:46:38;;;;;;;;;;;30.50;99.90;;;;;;5053518;28;19909;-85
2022/08/28 10:49:08;;;;;;;;;;;30.50;99.90;;;;;;5052897;28;20304;-83
2022/08/28 10:51:42;;;;;;;;;;;30.70;99.90;;;;;;5052450;28;19909;-82
2022/08/28 10:54:30;;;;;;;;;;;30.80;99.90;;;;;;5052363;28;20280;-82
2022/08/28 10:57:12;;;;;;;;;;;30.90;99.90;;;;;;5046775;28;20516;-82
2022/08/28 10:59:38;;;;;;;;;;;31.10;99.90;;;;;;5052567;28;19919;-82
2022/08/28 11:02:05;;;;;;;;;;;30.50;99.90;;;;;;5052745;28;19954;-82
2022/08/28 11:04:31;;;;;;;;;;;29.90;99.90;;;;;;5052345;28;19916;-82
2022/08/28 11:07:03;;;;;;;;;;;29.40;99.90;;;;;;5053222;28;19912;-81
2022/08/28 11:09:28;;;;;;;;;;;29.10;99.90;;;;;;5052349;28;19970;-82
2022/08/28 11:11:55;;;;;;;;;;;28.80;99.90;;;;;;5052173;28;19909;-81
2022/08/28 11:14:29;;;;;;;;;;;28.60;99.90;;;;;;5052213;28;19917;-82
2022/08/28 11:17:08;;;;;;;;;;;28.10;99.90;;;;;;5052800;28;19915;-86
2022/08/28 11:19:53;;;;;;;;;;;27.80;99.90;;;;;;5053678;28;20023;-90
2022/08/28 11:22:21;;;;;;;;;;;27.50;99.90;;;;;;5052243;28;19916;-90
2022/08/28 11:24:53;;;;;;;;;;;27.20;99.90;;;;;;5052107;28;20288;-90
2022/08/28 11:27:35;;;;;;;;;;;27.00;99.90;;;;;;5052488;28;20368;-89
2022/08/28 11:30:03;;;;;;;;;;;26.70;99.90;;;;;;5053374;28;20395;-90
2022/08/28 11:32:35;;;;;;;;;;;26.60;99.90;;;;;;5052209;28;19991;-89
2022/08/28 11:35:03;;;;;;;;;;;26.60;99.90;;;;;;5053115;28;19913;-88
2022/08/28 11:37:39;;;;;;;;;;;26.50;99.90;;;;;;5051700;28;19909;-90
2022/08/28 11:40:23;;;;;;;;;;;26.40;99.90;;;;;;5051868;28;19912;-89
2022/08/28 11:42:49;;;;;;;;;;;26.40;99.90;;;;;;5053113;28;20296;-90
2022/08/28 11:45:20;;;;;;;;;;;26.30;99.90;;;;;;5051869;28;19909;-90
2022/08/28 11:47:56;;;;;;;;;;;26.40;99.90;;;;;;5052010;28;20361;-90
2022/08/28 11:50:27;;;;;;;;;;;26.50;99.90;;;;;;5052156;28;20490;-90
2022/08/28 11:53:00;;;;;;;;;;;26.70;99.90;;;;;;5051741;28;19912;-87
2022/08/28 11:55:32;;;;;;;;;;;26.70;99.90;;;;;;5053099;28;19919;-85
2022/08/28 11:57:57;;;;;;;;;;;26.80;99.90;;;;;;5053137;28;19931;-85
2022/08/28 12:00:35;;;;;;;;;;;26.90;99.90;;;;;;5052971;28;19913;-84
2022/08/28 12:03:09;;;;;;;;;;;27.00;99.90;;;;;;5052229;28;19940;-85
2022/08/28 12:05:38;;;;;;;;;;;26.90;99.90;;;;;;5052942;28;19913;-85
2022/08/28 12:08:04;;;;;;;;;;;26.80;99.90;;;;;;5053239;28;20000;-85
2022/08/28 12:10:32;;;;;;;;;;;26.80;99.90;;;;;;5052327;28;20388;-84
2022/08/28 12:13:02;;;;;;;;;;;26.90;99.90;;;;;;5053091;28;19917;-84
2022/08/28 12:15:28;;;;;;;;;;;27.00;99.90;;;;;;5052280;28;19909;-84
2022/08/28 12:17:59;;;;;;;;;;;27.00;99.90;;;;;;5053163;28;19916;-85
2022/08/28 12:20:31;;;;;;;;;;;27.00;99.90;;;;;;5051935;28;19966;-85
2022/08/28 12:22:58;;;;;;;;;;;26.90;99.90;;;;;;5051766;28;19935;-85
2022/08/28 12:25:35;;;;;;;;;;;26.90;99.90;;;;;;5051905;28;20333;-86
2022/08/28 12:28:04;;;;;;;;;;;27.00;99.90;;;;;;5052180;28;20328;-84
2022/08/28 12:30:32;;;;;;;;;;;27.20;99.90;;;;;;5054463;28;20007;-84
2022/08/28 12:33:00;;;;;;;;;;;27.20;99.90;;;;;;5095517;28;19968;-85
2022/08/28 12:35:26;;;;;;;;;;;27.00;99.90;;;;;;5066659;28;20106;-85
2022/08/28 12:37:52;;;;;;;;;;;27.00;99.90;;;;;;5052345;28;19913;-84
2022/08/28 12:40:22;;;;;;;;;;;26.90;99.90;;;;;;5055465;28;19940;-84
2022/08/28 12:42:59;;;;;;;;;;;27.00;99.90;;;;;;5055558;28;19915;-85
2022/08/28 12:45:30;;;;;;;;;;;26.90;99.90;;;;;;5055640;28;19999;-84
2022/08/28 12:47:58;;;;;;;;;;;26.60;99.90;;;;;;5055356;28;20411;-83
2022/08/28 12:50:32;;;;;;;;;;;26.50;99.90;;;;;;5055236;28;20333;-84
2022/08/28 12:52:59;;;;;;;;;;;26.60;99.90;;;;;;5056302;28;19909;-90
2022/08/28 12:55:24;;;;;;;;;;;26.70;99.90;;;;;;5054630;28;19950;-90
2022/08/28 12:57:50;;;;;;;;;;;26.80;99.90;;;;;;5055746;28;19957;-90
2022/08/28 13:00:24;;;;;;;;;;;26.90;99.90;;;;;;5054733;28;19913;-90
2022/08/28 13:02:52;;;;;;;;;;;27.00;99.90;;;;;;5054819;28;19932;-91
2022/08/28 13:05:27;;;;;;;;;;;27.20;99.90;;;;;;5054595;28;19916;-90
2022/08/28 13:07:54;;;;;;;;;;;27.30;99.90;;;;;;5054412;28;19913;-91
2022/08/28 13:10:22;;;;;;;;;;;27.30;99.90;;;;;;5054661;28;20004;-90
2022/08/28 13:12:59;;;;;;;;;;;27.50;99.90;;;;;;5054659;28;19917;-89
2022/08/28 13:15:41;;;;;;;;;;;27.50;99.90;;;;;;5058751;28;20323;-91
2022/08/28 13:18:07;;;;;;;;;;;27.60;99.90;;;;;;5053989;28;19912;-91
2022/08/28 13:20:34;;;;;;;;;;;27.50;99.90;;;;;;5061789;28;19916;-90
2022/08/28 13:23:00;;;;;;;;;;;27.40;99.90;;;;;;5067849;28;19978;-92
2022/08/28 13:25:29;;;;;;;;;;;27.50;99.90;;;;;;5073993;28;19908;-90
2022/08/28 13:28:00;;;;;;;;;;;27.50;99.90;;;;;;5068203;28;19975;-90
2022/08/28 13:30:32;;;;;;;;;;;27.50;99.90;;;;;;5054136;28;19909;-90
2022/08/28 13:33:16;;;;;;;;;;;27.60;99.90;;;;;;5063661;28;19916;-91
2022/08/28 13:35:42;;;;;;;;;;;27.50;99.90;;;;;;5074455;28;20386;-89
2022/08/28 13:38:11;;;;;;;;;;;27.60;99.90;;;;;;5075000;28;19912;-88
2022/08/28 13:40:50;;;;;;;;;;;27.70;99.90;;;;;;5074050;28;19940;-89
2022/08/28 13:43:16;;;;;;;;;;;28.40;99.90;;;;;;5073366;28;19909;-88
2022/08/28 13:45:43;;;;;;;;;;;29.70;99.90;;;;;;5073601;28;19908;-89
2022/08/28 13:48:10;;;;;;;;;;;30.20;99.90;;;;;;5074703;28;19943;-89
2022/08/28 13:50:36;;;;;;;;;;;30.40;99.90;;;;;;5075127;28;19909;-85
2022/08/28 13:53:01;;;;;;;;;;;30.30;99.90;;;;;;5073429;28;19951;-83
2022/08/28 13:55:27;;;;;;;;;;;30.20;99.90;;;;;;5073314;28;20376;-84
2022/08/28 13:57:52;;;;;;;;;;;29.90;99.90;;;;;;5072979;28;19958;-82
2022/08/28 14:00:18;;;;;;;;;;;29.70;99.90;;;;;;5073265;28;20252;-82
2022/08/28 14:05:28;;;;;;;;;;;29.10;99.90;;;;;;5074324;28;20378;-83
2022/08/28 14:07:54;;;;;;;;;;;28.80;99.90;;;;;;5073002;28;19908;-82
2022/08/28 14:10:20;;;;;;;;;;;28.80;99.90;;;;;;5073320;28;20064;-82
2022/08/28 14:12:46;;;;;;;;;;;28.50;99.90;;;;;;5073023;28;19917;-82
2022/08/28 14:15:12;;;;;;;;;;;28.40;99.90;;;;;;5072824;28;19916;-82
2022/08/28 14:17:38;;;;;;;;;;;28.30;99.90;;;;;;5072934;28;19913;-82
2022/08/28 14:20:04;;;;;;;;;;;28.30;99.90;;;;;;5074235;28;19916;-82
2022/08/28 14:22:30;;;;;;;;;;;28.30;99.90;;;;;;5073995;28;19908;-82
2022/08/28 14:24:55;;;;;;;;;;;28.30;99.90;;;;;;5073764;28;19915;-82
2022/08/28 14:27:21;;;;;;;;;;;28.50;99.90;;;;;;5072621;28;19908;-83
2022/08/28 14:29:47;;;;;;;;;;;28.80;99.90;;;;;;5072760;28;19935;-82
2022/08/28 14:32:13;;;;;;;;;;;29.60;99.90;;;;;;5072547;28;20340;-83
2022/08/28 14:34:38;;;;;;;;;;;31.30;99.90;;;;;;5073872;28;19936;-82
2022/08/28 14:37:05;;;;;;;;;;;33.40;99.90;;;;;;5072364;28;19908;-84